Time;durP1;ratioP1;P1;durP2;ratioP2;P2;SDS_P1;SDS_P2;PMS_P1;PMS_P2;Temp;Humidity;BMP_temperature;BMP_pressure;BME280_temperature;BME280_humidity;BME280_pressure;Samples;Min_cycle;Max_cycle;Signal;HPM_P1;HPM_P2
2023/07/31 00:02:06;;;;;;;5.00;3.10;;;25.40;96.70;;;;;;5063893;28;20506;-73
2023/07/31 00:04:34;;;;;;;6.65;3.88;;;25.30;96.70;;;;;;5063745;28;20312;-72
2023/07/31 00:07:06;;;;;;;7.95;3.60;;;25.30;96.70;;;;;;5064474;28;20049;-73
2023/07/31 00:09:34;;;;;;;9.07;4.07;;;25.20;96.70;;;;;;5062969;28;20049;-73
2023/07/31 00:12:03;;;;;;;7.43;4.07;;;25.20;96.70;;;;;;5064355;28;20509;-73
2023/07/31 00:14:31;;;;;;;8.02;3.83;;;25.20;96.70;;;;;;5063166;28;20045;-73
2023/07/31 00:16:59;;;;;;;5.88;3.35;;;25.20;96.70;;;;;;5063837;28;20056;-73
2023/07/31 00:19:27;;;;;;;10.10;3.90;;;25.20;96.70;;;;;;5062996;28;20048;-73
2023/07/31 00:21:55;;;;;;;8.18;3.63;;;25.20;96.70;;;;;;5063133;28;20044;-73
2023/07/31 00:24:25;;;;;;;7.63;3.95;;;25.20;96.70;;;;;;5064983;28;20364;-73
2023/07/31 00:26:53;;;;;;;5.53;3.33;;;25.20;96.70;;;;;;5063192;28;20105;-72
2023/07/31 00:29:21;;;;;;;8.52;3.42;;;25.20;96.70;;;;;;5052725;28;20097;-73
2023/07/31 00:31:49;;;;;;;7.13;3.40;;;25.20;96.70;;;;;;5058195;28;20755;-73
2023/07/31 00:34:18;;;;;;;5.57;3.10;;;25.20;96.70;;;;;;5061102;28;20048;-73
2023/07/31 00:36:46;;;;;;;7.40;3.10;;;25.10;96.70;;;;;;5058841;28;20040;-73
2023/07/31 00:39:16;;;;;;;7.03;3.63;;;25.00;96.70;;;;;;5060092;28;20125;-72
2023/07/31 00:41:46;;;;;;;6.25;2.92;;;25.00;96.70;;;;;;5060858;28;20055;-73
2023/07/31 00:44:14;;;;;;;5.00;2.88;;;25.00;96.70;;;;;;5060951;28;20678;-73
2023/07/31 00:46:43;;;;;;;7.47;3.42;;;25.00;96.70;;;;;;5052370;28;20083;-74
2023/07/31 00:49:12;;;;;;;5.78;3.15;;;25.00;96.70;;;;;;5041325;28;20040;-73
2023/07/31 00:51:40;;;;;;;7.68;3.05;;;25.00;96.70;;;;;;5037746;28;20449;-73
2023/07/31 00:54:09;;;;;;;6.18;3.13;;;25.00;96.70;;;;;;5047274;28;20310;-72
2023/07/31 00:56:40;;;;;;;7.13;2.85;;;25.00;96.70;;;;;;5046140;28;20045;-74
2023/07/31 00:59:48;;;;;;;4.82;3.03;;;25.00;96.70;;;;;;5061203;28;20052;-73
2023/07/31 01:02:19;;;;;;;6.60;3.20;;;24.90;96.70;;;;;;5054903;28;20041;-74
2023/07/31 01:04:49;;;;;;;6.00;2.97;;;24.90;96.70;;;;;;5063990;28;20064;-73
2023/07/31 01:07:25;;;;;;;11.23;3.05;;;24.90;96.70;;;;;;5063343;28;20039;-73
2023/07/31 01:10:03;;;;;;;7.20;2.90;;;24.90;96.70;;;;;;5063494;28;20144;-72
2023/07/31 01:12:34;;;;;;;3.97;2.85;;;24.80;96.70;;;;;;5056335;28;20045;-73
2023/07/31 01:15:06;;;;;;;6.03;3.50;;;24.70;96.70;;;;;;5057964;28;20094;-72
2023/07/31 01:17:38;;;;;;;5.28;3.03;;;24.60;96.70;;;;;;5059693;28;20048;-73
2023/07/31 01:20:12;;;;;;;8.85;3.65;;;24.50;96.70;;;;;;5058186;28;20117;-72
2023/07/31 01:23:09;;;;;;;6.55;3.28;;;24.50;96.70;;;;;;5061394;28;20063;-73
2023/07/31 01:26:03;;;;;;;5.20;3.30;;;24.50;96.70;;;;;;5065189;28;20045;-73
2023/07/31 01:28:44;;;;;;;6.93;3.63;;;24.50;96.70;;;;;;5064159;28;20040;-72
2023/07/31 01:31:20;;;;;;;7.00;3.70;;;24.40;96.70;;;;;;5063135;28;20040;-73
2023/07/31 01:33:53;;;;;;;6.47;3.90;;;24.50;96.70;;;;;;5064001;28;20044;-73
2023/07/31 01:36:24;;;;;;;6.05;3.58;;;24.50;96.70;;;;;;5063253;28;20055;-72
2023/07/31 01:38:58;;;;;;;5.95;4.28;;;24.50;96.70;;;;;;5061244;28;20513;-73
2023/07/31 01:41:29;;;;;;;7.55;4.35;;;24.50;96.70;;;;;;5061828;28;20064;-72
2023/07/31 01:43:58;;;;;;;8.45;3.97;;;24.50;96.70;;;;;;5044457;28;20130;-72
2023/07/31 01:46:27;;;;;;;5.82;3.38;;;24.50;96.70;;;;;;5062734;28;20052;-73
2023/07/31 01:48:57;;;;;;;5.78;3.38;;;24.50;96.70;;;;;;5062490;28;20044;-72
2023/07/31 01:51:26;;;;;;;5.88;3.25;;;24.40;96.70;;;;;;5061830;28;20057;-72
2023/07/31 01:54:00;;;;;;;12.50;3.65;;;24.40;96.70;;;;;;5055023;28;20053;-73
2023/07/31 01:56:35;;;;;;;8.93;3.42;;;24.30;96.70;;;;;;5061053;28;20045;-72
2023/07/31 01:59:05;;;;;;;6.00;3.45;;;24.30;96.70;;;;;;5061614;28;20495;-72
2023/07/31 02:01:34;;;;;;;5.07;3.30;;;24.30;96.70;;;;;;5053556;28;20039;-73
2023/07/31 02:04:04;;;;;;;9.27;3.30;;;24.30;96.70;;;;;;5062540;28;20098;-72
2023/07/31 02:06:34;;;;;;;5.88;3.22;;;24.20;96.70;;;;;;5065293;28;20044;-72
2023/07/31 02:09:03;;;;;;;6.50;3.45;;;24.20;96.70;;;;;;5064633;28;20049;-72
2023/07/31 02:11:34;;;;;;;4.65;3.10;;;24.20;96.70;;;;;;5064891;28;20060;-72
2023/07/31 02:14:03;;;;;;;7.97;3.42;;;24.20;96.70;;;;;;5065230;28;20134;-73
2023/07/31 02:16:33;;;;;;;5.35;3.55;;;24.30;96.70;;;;;;5063015;28;20040;-73
2023/07/31 02:19:02;;;;;;;8.07;3.83;;;24.20;96.70;;;;;;5059938;28;20090;-73
2023/07/31 02:21:31;;;;;;;5.15;2.97;;;24.20;96.70;;;;;;5063637;28;20460;-73
2023/07/31 02:24:00;;;;;;;5.00;2.90;;;24.20;96.70;;;;;;5060840;28;20445;-72
2023/07/31 02:26:29;;;;;;;6.72;3.58;;;24.10;96.70;;;;;;5062402;28;20052;-73
2023/07/31 02:29:00;;;;;;;5.40;3.35;;;24.10;96.70;;;;;;5054307;28;20047;-73
2023/07/31 02:31:29;;;;;;;8.27;3.67;;;24.10;96.70;;;;;;5062266;28;20118;-73
2023/07/31 02:33:58;;;;;;;6.78;3.50;;;24.20;96.70;;;;;;5065641;28;20047;-72
2023/07/31 02:36:27;;;;;;;7.78;3.10;;;24.10;96.70;;;;;;5064309;28;20051;-72
2023/07/31 02:38:56;;;;;;;6.65;3.40;;;24.10;96.70;;;;;;5054775;28;20036;-73
2023/07/31 02:41:27;;;;;;;7.05;3.50;;;24.10;96.70;;;;;;5061359;28;20136;-72
2023/07/31 02:43:56;;;;;;;6.78;3.50;;;24.10;96.70;;;;;;5061103;28;20036;-73
2023/07/31 02:46:27;;;;;;;6.03;3.17;;;24.00;96.70;;;;;;5062297;28;20622;-73
2023/07/31 02:48:56;;;;;;;6.47;3.40;;;24.00;96.70;;;;;;5064613;28;20059;-72
2023/07/31 02:51:25;;;;;;;7.15;3.40;;;24.00;96.70;;;;;;5065463;28;20044;-72
2023/07/31 02:53:54;;;;;;;7.15;3.17;;;24.00;96.70;;;;;;5064291;28;20087;-73
2023/07/31 02:56:23;;;;;;;5.63;3.08;;;24.00;96.70;;;;;;5064136;28;20049;-72
2023/07/31 02:58:53;;;;;;;6.28;3.30;;;24.00;96.70;;;;;;5046484;28;20102;-72
2023/07/31 03:01:22;;;;;;;5.25;3.40;;;24.00;96.70;;;;;;5063938;28;20449;-73
2023/07/31 03:03:53;;;;;;;7.03;3.47;;;23.90;96.70;;;;;;5063514;28;20059;-73
2023/07/31 03:06:22;;;;;;;8.05;3.40;;;23.90;96.70;;;;;;5047049;28;20056;-73
2023/07/31 03:08:51;;;;;;;6.18;3.28;;;24.00;96.70;;;;;;5072741;28;20049;-72
2023/07/31 03:11:21;;;;;;;6.90;3.42;;;24.00;96.70;;;;;;5063687;28;20514;-72
2023/07/31 03:13:50;;;;;;;6.40;3.45;;;24.00;96.70;;;;;;5067553;28;20574;-73
2023/07/31 03:16:19;;;;;;;5.15;2.78;;;23.80;96.70;;;;;;5061178;28;20055;-72
2023/07/31 03:18:48;;;;;;;5.82;3.40;;;23.80;96.70;;;;;;5050600;28;20579;-72
2023/07/31 03:21:19;;;;;;;5.00;3.00;;;23.80;96.70;;;;;;5062420;28;20037;-73
2023/07/31 03:23:48;;;;;;;4.40;2.83;;;23.80;96.70;;;;;;5059966;28;20063;-73
2023/07/31 03:26:18;;;;;;;5.63;3.33;;;23.80;96.70;;;;;;5050274;28;20032;-73
2023/07/31 03:28:47;;;;;;;5.68;3.13;;;23.80;96.70;;;;;;5076169;28;20075;-72
2023/07/31 03:31:16;;;;;;;6.18;2.90;;;23.90;96.70;;;;;;5060909;28;20060;-72
2023/07/31 03:33:45;;;;;;;6.18;3.35;;;23.90;96.70;;;;;;5059328;28;20039;-73
2023/07/31 03:36:15;;;;;;;6.03;2.97;;;23.80;96.70;;;;;;5059927;28;20120;-72
2023/07/31 03:38:46;;;;;;;6.68;2.75;;;23.80;96.70;;;;;;5047250;28;20048;-73
2023/07/31 03:41:16;;;;;;;3.33;2.97;;;23.70;96.70;;;;;;5061518;28;20062;-72
2023/07/31 03:43:46;;;;;;;5.60;2.58;;;23.70;96.70;;;;;;5058397;28;20056;-73
2023/07/31 03:46:15;;;;;;;7.05;3.20;;;23.80;96.70;;;;;;5042430;28;20049;-73
2023/07/31 03:48:45;;;;;;;4.95;3.22;;;23.90;96.70;;;;;;5060557;28;20041;-73
2023/07/31 03:51:14;;;;;;;6.82;2.88;;;23.80;96.70;;;;;;5059218;28;20056;-73
2023/07/31 03:53:45;;;;;;;7.05;3.10;;;23.70;96.70;;;;;;5059796;28;20067;-72
2023/07/31 03:56:14;;;;;;;6.03;3.10;;;23.60;96.70;;;;;;5070432;28;20078;-73
2023/07/31 03:58:43;;;;;;;6.45;2.65;;;23.50;96.70;;;;;;5057379;28;20123;-73
2023/07/31 04:01:13;;;;;;;4.45;2.70;;;23.50;96.70;;;;;;5060681;28;20045;-79
2023/07/31 04:03:42;;;;;;;5.40;2.88;;;23.50;96.70;;;;;;5050845;28;20047;-77
2023/07/31 04:06:11;;;;;;;3.45;2.63;;;23.50;96.70;;;;;;5059377;28;20695;-77
2023/07/31 04:08:40;;;;;;;4.55;2.70;;;23.50;96.70;;;;;;5059210;28;20086;-77
2023/07/31 04:11:15;;;;;;;5.50;2.70;;;23.40;96.70;;;;;;5060563;28;20061;-77
2023/07/31 04:13:44;;;;;;;4.82;2.55;;;23.40;96.70;;;;;;5062086;28;20077;-77
2023/07/31 04:16:13;;;;;;;4.68;2.95;;;23.40;96.70;;;;;;5063915;28;20033;-77
2023/07/31 04:18:42;;;;;;;7.45;3.15;;;23.40;96.70;;;;;;5063907;28;20044;-77
2023/07/31 04:21:11;;;;;;;4.53;2.60;;;23.40;96.70;;;;;;5063959;28;20371;-77
2023/07/31 04:23:41;;;;;;;5.20;2.67;;;23.40;96.70;;;;;;5065237;28;20142;-77
2023/07/31 04:26:12;;;;;;;7.35;3.67;;;23.50;96.70;;;;;;5062098;28;20736;-77
2023/07/31 04:28:41;;;;;;;8.40;2.70;;;23.50;96.70;;;;;;5058372;28;20048;-76
2023/07/31 04:31:10;;;;;;;3.75;2.70;;;23.50;96.70;;;;;;5075173;28;20083;-76
2023/07/31 04:33:40;;;;;;;5.82;2.63;;;23.50;96.70;;;;;;5041586;28;20055;-77
2023/07/31 04:36:09;;;;;;;5.03;3.05;;;23.40;96.70;;;;;;5060309;28;20455;-77
2023/07/31 04:38:38;;;;;;;4.13;2.80;;;23.40;96.70;;;;;;5062275;28;20037;-77
2023/07/31 04:41:07;;;;;;;4.75;2.30;;;23.50;96.70;;;;;;5063706;28;20132;-77
2023/07/31 04:43:39;;;;;;;5.75;2.75;;;23.50;96.70;;;;;;5058603;28;20044;-77
2023/07/31 04:46:08;;;;;;;6.05;2.67;;;23.50;96.70;;;;;;5064289;28;20040;-77
2023/07/31 04:48:38;;;;;;;6.28;2.92;;;23.60;96.70;;;;;;5063952;28;20111;-78
2023/07/31 04:51:07;;;;;;;6.18;2.67;;;23.50;96.70;;;;;;5062828;28;20524;-77
2023/07/31 04:53:36;;;;;;;6.18;3.10;;;23.50;96.70;;;;;;5061595;28;20157;-77
2023/07/31 04:56:05;;;;;;;5.22;3.13;;;23.50;96.70;;;;;;5060981;28;20460;-76
2023/07/31 04:58:35;;;;;;;6.97;3.25;;;23.50;96.70;;;;;;5058752;28;20529;-76
2023/07/31 05:01:06;;;;;;;5.28;3.35;;;23.60;96.70;;;;;;5059396;28;20137;-77
2023/07/31 05:03:35;;;;;;;7.40;2.78;;;23.60;96.70;;;;;;5062018;28;20138;-77
2023/07/31 05:06:04;;;;;;;4.80;2.78;;;23.50;96.70;;;;;;5063291;28;20037;-77
2023/07/31 05:08:33;;;;;;;7.60;3.13;;;23.50;96.70;;;;;;5054296;28;20051;-77
2023/07/31 05:11:03;;;;;;;6.45;3.92;;;23.60;96.70;;;;;;5063479;28;20159;-77
2023/07/31 05:13:32;;;;;;;8.10;3.17;;;23.60;96.70;;;;;;5062569;28;20065;-77
2023/07/31 05:16:01;;;;;;;5.40;2.92;;;23.60;96.70;;;;;;5054807;28;20552;-77
2023/07/31 05:18:32;;;;;;;5.53;3.28;;;23.70;96.70;;;;;;5075945;28;20140;-77
2023/07/31 05:21:02;;;;;;;4.75;3.28;;;23.80;96.70;;;;;;5058640;28;20115;-77
2023/07/31 05:23:32;;;;;;;5.20;3.00;;;23.80;96.70;;;;;;5063222;28;20048;-77
2023/07/31 05:26:05;;;;;;;5.30;3.10;;;23.70;96.70;;;;;;5063091;28;20053;-77
2023/07/31 05:28:36;;;;;;;7.53;3.25;;;23.70;96.70;;;;;;5062839;28;20036;-76
2023/07/31 05:31:06;;;;;;;6.57;3.10;;;23.70;96.70;;;;;;5063145;28;20051;-77
2023/07/31 05:33:37;;;;;;;6.68;3.00;;;23.80;96.70;;;;;;5061274;28;20049;-77
2023/07/31 05:36:06;;;;;;;5.75;3.38;;;23.80;96.70;;;;;;5064128;28;20055;-77
2023/07/31 05:38:36;;;;;;;5.93;3.55;;;23.70;96.70;;;;;;5063535;28;20037;-77
2023/07/31 05:41:05;;;;;;;9.18;3.90;;;23.50;96.70;;;;;;5062044;28;20071;-77
2023/07/31 05:43:35;;;;;;;5.00;3.30;;;23.60;96.70;;;;;;5060624;28;20064;-79
2023/07/31 05:46:04;;;;;;;9.70;3.90;;;23.50;96.70;;;;;;5063215;28;20371;-79
2023/07/31 05:48:34;;;;;;;6.70;4.15;;;23.50;96.70;;;;;;5062787;28;20446;-81
2023/07/31 05:51:05;;;;;;;10.27;4.13;;;23.60;96.70;;;;;;5061890;28;20091;-79
2023/07/31 05:53:35;;;;;;;13.10;5.28;;;23.70;96.70;;;;;;5058733;28;20127;-80
2023/07/31 05:56:05;;;;;;;10.35;4.88;;;23.80;96.70;;;;;;5063634;28;20048;-79
2023/07/31 05:58:34;;;;;;;9.27;5.03;;;24.00;96.70;;;;;;5062303;28;20053;-78
2023/07/31 06:01:03;;;;;;;10.52;5.30;;;24.00;96.70;;;;;;5061285;28;20047;-80
2023/07/31 06:03:32;;;;;;;10.02;4.82;;;24.00;96.70;;;;;;5061239;28;20413;-77
2023/07/31 06:06:03;;;;;;;9.77;4.35;;;24.10;96.70;;;;;;5063479;28;20049;-79
2023/07/31 06:08:33;;;;;;;9.65;4.63;;;24.20;96.70;;;;;;5060988;28;20047;-79
2023/07/31 06:11:02;;;;;;;7.20;4.00;;;24.30;96.70;;;;;;5064058;28;20229;-81
2023/07/31 06:13:31;;;;;;;10.45;4.57;;;24.30;96.70;;;;;;5064940;28;20055;-78
2023/07/31 06:16:04;;;;;;;9.23;4.05;;;24.40;96.70;;;;;;5067040;28;20044;-78
2023/07/31 06:18:34;;;;;;;5.00;3.28;;;24.40;96.70;;;;;;5047836;28;20047;-81
2023/07/31 06:21:05;;;;;;;11.70;4.43;;;24.50;96.70;;;;;;5082486;28;20051;-80
2023/07/31 06:23:34;;;;;;;9.90;4.10;;;24.60;96.70;;;;;;5048057;28;20047;-78
2023/07/31 06:26:04;;;;;;;11.02;4.55;;;24.60;96.70;;;;;;5048375;28;20052;-80
2023/07/31 06:28:34;;;;;;;9.02;4.28;;;24.70;96.70;;;;;;5066526;28;20044;-79
2023/07/31 06:31:03;;;;;;;10.55;4.55;;;24.80;96.70;;;;;;5065183;28;20167;-80
2023/07/31 06:33:33;;;;;;;13.00;4.65;;;24.90;96.70;;;;;;5065736;28;20611;-79
2023/07/31 06:36:02;;;;;;;10.13;4.47;;;24.80;96.70;;;;;;5066028;28;20482;-79
2023/07/31 06:38:33;;;;;;;16.27;6.10;;;24.80;96.70;;;;;;5063873;28;20056;-78
2023/07/31 06:41:02;;;;;;;8.63;4.57;;;24.80;96.70;;;;;;5066224;28;20501;-77
2023/07/31 06:43:31;;;;;;;9.20;3.88;;;24.80;96.70;;;;;;5065955;28;20048;-77
2023/07/31 06:46:05;;;;;;;12.23;4.95;;;24.70;96.70;;;;;;5081162;28;20051;-78
2023/07/31 06:48:36;;;;;;;11.48;4.07;;;24.80;96.70;;;;;;5047873;28;20498;-78
2023/07/31 06:51:05;;;;;;;6.15;3.17;;;24.90;96.70;;;;;;5064339;28;20147;-77
2023/07/31 06:53:34;;;;;;;8.32;3.88;;;25.00;96.70;;;;;;5065994;28;20103;-78
2023/07/31 06:56:03;;;;;;;6.88;3.00;;;25.20;96.70;;;;;;5064102;28;20049;-80
2023/07/31 06:58:32;;;;;;;5.18;3.03;;;25.30;96.70;;;;;;5064129;28;20647;-78
2023/07/31 07:01:00;;;;;;;8.23;3.72;;;25.30;96.70;;;;;;5066275;28;20051;-77
2023/07/31 07:03:28;;;;;;;9.38;3.40;;;25.40;96.70;;;;;;5065448;28;20045;-77
2023/07/31 07:05:56;;;;;;;7.80;3.95;;;25.50;96.70;;;;;;5063771;28;20064;-77
2023/07/31 07:08:25;;;;;;;10.30;3.50;;;25.50;96.70;;;;;;5063996;28;20047;-77
2023/07/31 07:10:55;;;;;;;9.13;4.00;;;25.50;96.70;;;;;;5063963;28;20045;-77
2023/07/31 07:13:24;;;;;;;7.07;3.33;;;25.60;96.70;;;;;;5064212;28;20083;-78
2023/07/31 07:15:52;;;;;;;6.05;3.22;;;25.70;96.70;;;;;;5064480;28;20047;-79
2023/07/31 07:18:21;;;;;;;7.03;3.08;;;25.80;96.70;;;;;;5065609;28;20827;-78
2023/07/31 07:20:51;;;;;;;7.47;3.28;;;25.90;96.70;;;;;;5063672;28;20144;-78
2023/07/31 07:23:19;;;;;;;9.88;3.50;;;25.90;96.70;;;;;;5064456;28;20094;-79
2023/07/31 07:25:48;;;;;;;5.82;3.22;;;26.00;96.70;;;;;;5065658;28;20132;-78
2023/07/31 07:28:17;;;;;;;5.70;3.40;;;26.10;96.70;;;;;;5080247;28;20091;-79
2023/07/31 07:30:52;;;;;;;6.05;3.20;;;26.10;96.70;;;;;;5064070;28;20052;-80
2023/07/31 07:33:21;;;;;;;5.93;3.38;;;26.00;96.70;;;;;;5063343;28;20083;-78
2023/07/31 07:35:49;;;;;;;9.85;3.72;;;26.10;96.70;;;;;;5064658;28;20043;-79
2023/07/31 07:38:19;;;;;;;7.85;3.42;;;26.20;96.70;;;;;;5063483;28;20593;-79
2023/07/31 07:40:50;;;;;;;8.50;2.78;;;26.30;96.70;;;;;;5064944;28;20044;-78
2023/07/31 07:43:19;;;;;;;6.95;3.38;;;26.40;96.70;;;;;;5046699;28;20121;-79
2023/07/31 07:45:47;;;;;;;7.78;3.40;;;26.50;96.70;;;;;;5060610;28;20551;-79
2023/07/31 07:48:17;;;;;;;6.10;3.20;;;26.60;96.70;;;;;;5063546;28;20028;-78
2023/07/31 07:50:45;;;;;;;4.95;3.00;;;26.70;96.70;;;;;;5064920;28;20067;-78
2023/07/31 07:53:14;;;;;;;6.78;3.20;;;26.80;96.70;;;;;;5063739;28;20142;-78
2023/07/31 07:55:42;;;;;;;5.50;3.05;;;26.90;96.70;;;;;;5065101;28;20048;-77
2023/07/31 07:58:10;;;;;;;5.28;2.92;;;27.00;96.70;;;;;;5064537;28;20557;-78
2023/07/31 08:00:39;;;;;;;5.47;3.28;;;27.10;96.70;;;;;;5063251;28;20118;-78
2023/07/31 08:03:07;;;;;;;7.88;3.20;;;27.30;96.70;;;;;;5055463;28;20037;-79
2023/07/31 08:05:36;;;;;;;6.15;2.80;;;27.40;96.70;;;;;;5064405;28;20895;-79
2023/07/31 08:08:04;;;;;;;6.68;3.20;;;27.40;96.70;;;;;;5064730;28;20136;-78
2023/07/31 08:10:32;;;;;;;6.82;3.45;;;27.50;96.70;;;;;;5064685;28;20072;-78
2023/07/31 08:13:00;;;;;;;4.28;3.30;;;27.60;96.70;;;;;;5058719;28;20611;-79
2023/07/31 08:15:28;;;;;;;7.30;3.20;;;27.70;96.70;;;;;;5078111;28;20143;-77
2023/07/31 08:17:57;;;;;;;4.47;3.00;;;27.80;96.70;;;;;;5064284;28;20494;-78
2023/07/31 08:20:27;;;;;;;5.72;3.08;;;27.80;96.70;;;;;;5064481;28;20098;-80
2023/07/31 08:22:55;;;;;;;6.85;3.40;;;28.00;96.70;;;;;;5064475;28;20482;-78
2023/07/31 08:25:23;;;;;;;7.80;3.10;;;28.00;96.70;;;;;;5064238;28;20527;-78
2023/07/31 08:27:52;;;;;;;11.50;3.92;;;28.10;96.70;;;;;;5063891;28;20521;-78
2023/07/31 08:30:20;;;;;;;8.38;3.28;;;28.20;96.70;;;;;;5064471;28;20048;-78
2023/07/31 08:32:49;;;;;;;6.80;3.72;;;28.20;96.70;;;;;;5063829;28;20051;-79
2023/07/31 08:35:19;;;;;;;7.63;3.30;;;28.10;96.70;;;;;;5062101;28;20449;-77
2023/07/31 08:37:47;;;;;;;8.82;3.08;;;28.00;96.70;;;;;;5063992;28;20041;-77
2023/07/31 08:40:15;;;;;;;7.57;3.92;;;28.00;96.70;;;;;;5062595;28;20124;-78
2023/07/31 08:42:45;;;;;;;7.57;3.42;;;27.90;96.70;;;;;;5062334;28;20055;-77
2023/07/31 08:45:15;;;;;;;8.07;3.40;;;27.90;96.70;;;;;;5062584;28;20127;-79
2023/07/31 08:47:46;;;;;;;8.63;3.53;;;27.90;96.70;;;;;;5056793;28;21080;-78
2023/07/31 08:50:16;;;;;;;7.30;3.17;;;28.00;96.70;;;;;;5063694;28;20064;-77
2023/07/31 08:52:48;;;;;;;9.05;3.70;;;28.10;96.70;;;;;;5079017;28;20056;-78
2023/07/31 08:55:17;;;;;;;6.45;3.40;;;28.20;96.70;;;;;;5063560;28;20047;-78
2023/07/31 08:57:46;;;;;;;8.65;3.30;;;28.30;96.70;;;;;;5061688;28;20163;-79
2023/07/31 09:00:14;;;;;;;6.97;2.92;;;28.30;96.70;;;;;;5063618;28;20055;-77
2023/07/31 09:02:46;;;;;;;6.03;3.00;;;28.30;96.70;;;;;;5063727;28;20048;-78
2023/07/31 09:05:15;;;;;;;5.57;3.13;;;28.40;96.70;;;;;;5063208;28;20047;-78
2023/07/31 09:07:49;;;;;;;6.85;2.97;;;28.40;96.70;;;;;;5067542;28;20039;-79
2023/07/31 09:10:18;;;;;;;10.65;3.00;;;28.40;96.70;;;;;;5053773;28;20144;-78
2023/07/31 09:12:48;;;;;;;6.13;2.78;;;28.50;96.70;;;;;;5061895;28;20513;-78
2023/07/31 09:15:18;;;;;;;6.43;3.13;;;28.60;96.70;;;;;;5063717;28;20127;-79
2023/07/31 09:18:05;;;;;;;6.90;3.40;;;28.60;96.70;;;;;;5062427;28;20044;-79
2023/07/31 09:20:35;;;;;;;7.90;3.70;;;28.60;96.70;;;;;;5062291;28;20451;-80
2023/07/31 09:23:09;;;;;;;5.00;3.15;;;28.60;96.70;;;;;;5062295;28;20084;-78
2023/07/31 09:25:39;;;;;;;7.47;2.97;;;28.60;96.70;;;;;;5061965;28;20052;-78
2023/07/31 09:28:09;;;;;;;6.68;3.25;;;28.50;96.70;;;;;;5061507;28;20052;-78
2023/07/31 09:30:47;;;;;;;7.35;3.28;;;28.60;96.70;;;;;;5063230;28;20044;-79
2023/07/31 09:33:16;;;;;;;7.15;3.35;;;28.70;96.70;;;;;;5063466;28;20141;-79
2023/07/31 09:35:45;;;;;;;7.35;3.45;;;28.80;96.70;;;;;;5063697;28;20037;-78
2023/07/31 09:38:15;;;;;;;7.65;4.10;;;28.80;96.70;;;;;;5061282;28;20071;-78
2023/07/31 09:40:45;;;;;;;7.60;2.53;;;29.00;96.70;;;;;;5061911;28;20117;-79
2023/07/31 09:43:18;;;;;;;7.30;2.90;;;29.00;96.70;;;;;;5059669;28;20068;-78
2023/07/31 09:45:47;;;;;;;5.05;2.33;;;29.10;96.70;;;;;;5065654;28;20052;-78
2023/07/31 09:48:17;;;;;;;8.70;2.80;;;29.00;96.70;;;;;;5065828;28;20041;-79
2023/07/31 09:50:46;;;;;;;4.68;2.47;;;29.00;96.70;;;;;;5066732;28;20063;-78
2023/07/31 09:53:18;;;;;;;4.95;2.50;;;29.10;96.70;;;;;;5066409;28;20048;-78
2023/07/31 09:55:46;;;;;;;4.78;2.35;;;29.10;96.70;;;;;;5067438;28;20040;-78
2023/07/31 09:58:14;;;;;;;4.57;2.42;;;29.10;96.70;;;;;;5064855;28;20049;-78
2023/07/31 10:00:43;;;;;;;7.50;3.20;;;29.20;96.70;;;;;;5067176;28;20497;-78
2023/07/31 10:03:11;;;;;;;5.35;2.60;;;29.30;96.70;;;;;;5065449;28;20064;-77
2023/07/31 10:05:42;;;;;;;5.43;2.67;;;29.40;96.70;;;;;;5066471;28;20044;-77
2023/07/31 10:08:15;;;;;;;5.18;2.55;;;29.40;96.70;;;;;;5067129;28;20048;-77
2023/07/31 10:10:46;;;;;;;6.80;2.80;;;29.60;96.70;;;;;;5048848;28;20098;-77
2023/07/31 10:13:15;;;;;;;7.85;3.25;;;29.70;96.70;;;;;;5065087;28;20171;-78
2023/07/31 10:15:43;;;;;;;5.05;2.70;;;29.70;96.70;;;;;;5065289;28;20052;-77
2023/07/31 10:18:12;;;;;;;6.00;2.90;;;29.80;96.70;;;;;;5065929;28;20045;-78
2023/07/31 10:20:41;;;;;;;8.82;3.38;;;30.00;96.70;;;;;;5045398;28;20182;-77
2023/07/31 10:23:10;;;;;;;5.53;2.75;;;29.90;96.70;;;;;;5064769;28;20502;-77
2023/07/31 10:25:39;;;;;;;4.50;2.28;;;30.10;96.70;;;;;;5066142;28;20498;-78
2023/07/31 10:28:10;;;;;;;5.47;2.60;;;30.20;96.70;;;;;;5064850;28;20114;-77
2023/07/31 10:30:40;;;;;;;4.82;2.30;;;30.20;96.70;;;;;;5064645;28;20048;-78
2023/07/31 10:33:09;;;;;;;7.45;2.47;;;30.20;96.70;;;;;;5056929;28;20052;-78
2023/07/31 10:35:37;;;;;;;7.80;2.67;;;30.30;96.70;;;;;;5064940;28;20048;-78
2023/07/31 10:38:11;;;;;;;5.03;2.40;;;30.40;96.70;;;;;;5059848;28;20036;-78
2023/07/31 10:40:40;;;;;;;4.60;2.42;;;30.50;96.70;;;;;;5066351;28;20101;-77
2023/07/31 10:43:25;;;;;;;4.07;2.28;;;30.60;96.70;;;;;;5064134;28;20068;-77
2023/07/31 10:45:53;;;;;;;4.15;2.28;;;30.60;96.70;;;;;;5064544;28;20076;-77
2023/07/31 10:48:23;;;;;;;6.18;2.60;;;30.60;96.70;;;;;;5044562;28;20405;-78
2023/07/31 10:50:55;;;;;;;6.32;2.15;;;30.70;96.70;;;;;;5064633;28;20470;-78
2023/07/31 10:53:25;;;;;;;5.57;2.35;;;30.90;96.70;;;;;;5065497;28;20046;-78
2023/07/31 10:55:57;;;;;;;4.63;2.25;;;31.00;96.70;;;;;;5064218;28;20087;-78
2023/07/31 10:58:27;;;;;;;5.72;2.40;;;31.40;96.70;;;;;;5065127;28;20777;-78
2023/07/31 11:00:57;;;;;;;6.75;2.92;;;31.40;96.70;;;;;;5064574;28;20131;-77
2023/07/31 11:03:27;;;;;;;3.65;2.13;;;31.40;96.70;;;;;;5063655;28;20066;-77
2023/07/31 11:06:02;;;;;;;6.07;2.38;;;31.50;96.70;;;;;;5063645;28;20391;-78
2023/07/31 11:08:34;;;;;;;3.30;1.75;;;31.50;96.70;;;;;;5065512;28;20162;-78
2023/07/31 11:11:07;;;;;;;4.35;2.30;;;31.20;96.70;;;;;;5066285;28;20245;-78
2023/07/31 11:13:43;;;;;;;6.28;2.08;;;31.20;96.70;;;;;;5063579;28;20052;-77
2023/07/31 11:16:13;;;;;;;4.00;2.08;;;31.40;96.70;;;;;;5057647;28;20040;-78
2023/07/31 11:18:42;;;;;;;3.30;2.22;;;31.60;96.70;;;;;;5047359;28;20090;-77
2023/07/31 11:21:13;;;;;;;5.45;2.40;;;31.80;96.70;;;;;;5065586;28;20507;-78
2023/07/31 11:23:45;;;;;;;5.93;2.33;;;31.80;96.70;;;;;;5064121;28;20048;-78
2023/07/31 11:26:14;;;;;;;5.38;2.47;;;31.80;96.70;;;;;;5046960;28;20059;-78
2023/07/31 11:28:46;;;;;;;5.15;2.58;;;32.10;96.70;;;;;;5063251;28;20044;-77
2023/07/31 11:31:15;;;;;;;6.45;3.03;;;32.20;96.70;;;;;;5065538;28;20040;-78
2023/07/31 11:33:43;;;;;;;3.63;2.15;;;32.20;96.70;;;;;;5064489;28;20044;-77
2023/07/31 11:36:16;;;;;;;5.75;2.60;;;32.20;96.70;;;;;;5061624;28;20052;-77
2023/07/31 11:38:44;;;;;;;4.82;2.45;;;32.40;96.70;;;;;;5063459;28;20073;-77
2023/07/31 11:41:15;;;;;;;4.50;2.28;;;32.50;96.70;;;;;;5065414;28;20139;-78
2023/07/31 11:43:47;;;;;;;3.60;2.28;;;32.60;96.70;;;;;;5064792;28;20119;-78
2023/07/31 11:46:16;;;;;;;3.50;1.88;;;32.60;96.70;;;;;;5063474;28;20056;-78
2023/07/31 11:48:44;;;;;;;2.97;2.30;;;32.70;96.70;;;;;;5065311;28;20119;-78
2023/07/31 11:51:14;;;;;;;3.90;2.28;;;32.60;96.70;;;;;;5062575;28;20056;-78
2023/07/31 11:53:44;;;;;;;3.92;2.00;;;32.60;96.70;;;;;;5064476;28;20044;-78
2023/07/31 11:56:16;;;;;;;3.47;2.05;;;32.60;96.70;;;;;;5063482;28;20622;-79
2023/07/31 11:58:47;;;;;;;5.13;2.40;;;32.60;96.70;;;;;;5062866;28;20056;-79
2023/07/31 12:01:18;;;;;;;3.50;2.20;;;32.60;96.70;;;;;;5062887;28;20075;-78
2023/07/31 12:03:47;;;;;;;3.53;2.28;;;32.60;96.70;;;;;;5060242;28;20071;-79
2023/07/31 12:06:15;;;;;;;5.32;2.20;;;32.80;96.70;;;;;;5062836;28;20460;-78
2023/07/31 12:08:44;;;;;;;4.90;2.40;;;32.80;96.70;;;;;;5063834;28;20484;-78
2023/07/31 12:11:17;;;;;;;4.07;2.13;;;32.90;96.70;;;;;;5064945;28;20468;-78
2023/07/31 12:13:47;;;;;;;4.18;2.55;;;33.10;96.70;;;;;;5063501;28;20044;-78
2023/07/31 12:16:15;;;;;;;4.10;2.08;;;33.30;96.70;;;;;;5055039;28;20109;-78
2023/07/31 12:18:44;;;;;;;4.38;1.92;;;33.30;96.70;;;;;;5063902;28;20504;-78
2023/07/31 12:21:13;;;;;;;5.40;2.10;;;33.40;96.70;;;;;;5064478;28;20531;-77
2023/07/31 12:23:44;;;;;;;3.53;2.15;;;33.10;96.70;;;;;;5064502;28;20048;-78
2023/07/31 12:26:14;;;;;;;3.28;2.05;;;33.00;96.70;;;;;;5062958;28;20063;-79
2023/07/31 12:28:44;;;;;;;3.30;2.03;;;33.10;96.70;;;;;;5047107;28;20099;-78
2023/07/31 12:31:17;;;;;;;5.22;1.92;;;33.40;96.70;;;;;;5057538;28;20044;-77
2023/07/31 12:33:47;;;;;;;4.40;2.00;;;33.40;96.70;;;;;;5062355;28;20048;-77
2023/07/31 12:36:17;;;;;;;5.50;2.22;;;33.50;96.70;;;;;;5062117;28;20040;-78
2023/07/31 12:38:46;;;;;;;4.43;1.98;;;33.50;96.70;;;;;;5045821;28;20131;-78
2023/07/31 12:41:15;;;;;;;5.55;2.25;;;33.50;96.70;;;;;;5062008;28;20441;-78
2023/07/31 12:43:45;;;;;;;5.18;2.05;;;33.70;96.70;;;;;;5061594;28;20138;-78
2023/07/31 12:46:16;;;;;;;4.53;2.08;;;33.80;96.70;;;;;;5061611;28;20091;-78
2023/07/31 12:48:45;;;;;;;3.42;2.08;;;33.90;96.70;;;;;;5064020;28;20054;-78
2023/07/31 12:51:13;;;;;;;3.45;2.05;;;33.90;96.70;;;;;;5062877;28;20048;-78
2023/07/31 12:53:42;;;;;;;2.80;1.88;;;33.90;96.70;;;;;;5062121;28;20055;-79
2023/07/31 12:56:10;;;;;;;3.88;2.22;;;33.90;96.70;;;;;;5045071;28;20037;-78
2023/07/31 12:58:39;;;;;;;3.15;2.20;;;33.80;96.70;;;;;;5062920;28;20063;-77
2023/07/31 13:01:07;;;;;;;3.72;2.40;;;33.80;96.70;;;;;;5061208;28;20029;-78